Friday, February 23, 2018, 7:16 AM EST
Back to Local

KMTN, Baltimore / Martin

Location: Middle River, MD, United States Lat: 39.333
Local Time: 7:16 AM EST (12:16 GMT) Lon: -76.417
Time Zone: US/Eastern Elev: 22 ft

Show me the last for .
Show Decoded

2018-02-23 06:45 METAR KMTN 231145Z 05004KT 2SM -DZ BR OVC007 04/04 A3061 =
2018-02-23 06:20 METAR KMTN 231120Z COR 00000KT 4SM -DZ BR OVC007 05/04 A3061 =
2018-02-23 06:05 METAR KMTN 231105Z 08005KT 7SM -DZ BR BKN014 OVC018 05/04 A3060 =
2018-02-23 05:45 METAR KMTN 231045Z 05005KT 10SM BKN010 OVC018 05/04 A3060 RMK FIRST =
2018-02-23 05:30 METAR KMTN 231030Z AUTO 00000KT 10SM OVC008 05/04 A3061 RMK AO2 =
2018-02-23 05:15 METAR KMTN 231015Z AUTO 03003KT 10SM -DZ OVC008 05/05 A3060 RMK AO2 =
2018-02-23 04:57 METAR KMTN 230957Z AUTO 00000KT 10SM RA OVC008 05/05 A3061 RMK AO2 P0001 =
2018-02-23 04:36 METAR KMTN 230936Z AUTO 04004KT 10SM BKN008 OVC015 05/05 A3061 RMK AO2 =
2018-02-23 04:15 METAR KMTN 230915Z AUTO 05003KT 10SM BKN006 OVC012 05/05 A3061 RMK AO2 =
2018-02-23 03:57 METAR KMTN 230857Z AUTO 00000KT 10SM -DZ OVC011 05/05 A3061 RMK AO2 P0002 =
2018-02-23 03:36 METAR KMTN 230836Z AUTO 06004KT 7SM +RA OVC015 05/04 A3062 RMK AO2 P0001 =
2018-02-23 03:15 METAR KMTN 230815Z AUTO 03003KT 10SM RA BKN014 OVC022 05/04 A3062 RMK AO2 =
2018-02-23 02:57 METAR KMTN 230757Z AUTO 05005KT 10SM RA BKN010 OVC020 05/05 A3062 RMK AO2 P0001
                 =
2018-02-23 02:36 METAR KMTN 230736Z AUTO 04004KT 10SM RA BKN010 OVC018 05/05 A3061 RMK AO2 =
2018-02-23 02:15 METAR KMTN 230715Z AUTO 00000KT 10SM OVC010 05/04 A3062 RMK AO2 =
2018-02-23 01:57 METAR KMTN 230657Z AUTO 00000KT 10SM OVC012 05/04 A3062 RMK AO2 =
2018-02-23 01:36 METAR KMTN 230636Z AUTO 04006KT 10SM OVC014 05/04 A3063 RMK AO2 =
2018-02-23 01:15 METAR KMTN 230615Z AUTO 04004KT 10SM OVC012 05/04 A3063 RMK AO2 =
2018-02-23 00:57 METAR KMTN 230557Z AUTO 03003KT 10SM OVC012 05/04 A3064 RMK AO2 =
2018-02-23 00:36 METAR KMTN 230536Z AUTO 06005KT 10SM OVC012 05/05 A3063 RMK AO2 =
2018-02-23 00:15 METAR KMTN 230515Z AUTO 05005KT 10SM OVC010 05/05 A3062 RMK AO2 =
2018-02-22 23:57 METAR KMTN 230457Z AUTO 04004KT 4SM BR BKN012 OVC018 05/05 A3063 RMK AO2 =
2018-02-22 23:36 METAR KMTN 230436Z AUTO 05005KT 10SM OVC016 06/04 A3064 RMK AO2 =
2018-02-22 23:15 METAR KMTN 230415Z AUTO 05003KT 10SM OVC016 06/05 A3064 RMK AO2 =
2018-02-22 22:57 METAR KMTN 230357Z AUTO 00000KT 10SM BKN013 OVC018 06/04 A3064 RMK AO2 =
2018-02-22 22:36 METAR KMTN 230336Z AUTO 05004KT 10SM OVC011 06/05 A3064 RMK AO2 =
2018-02-22 22:15 METAR KMTN 230315Z AUTO 05003KT 10SM BKN013 OVC019 06/05 A3064 RMK AO2 =
2018-02-22 21:45 METAR KMTN 230245Z 06006KT 10SM BKN013 OVC019 06/05 A3062 RMK LAST =
2018-02-22 20:45 METAR KMTN 230145Z 07005KT 10SM BKN013 OVC022 06/05 A3062 =
2018-02-22 19:45 METAR KMTN 230045Z 04008G16KT 7SM BKN011 OVC017 07/06 A3059 =
2018-02-22 18:45 METAR KMTN 222345Z 04007KT 7SM BKN011 OVC017 07/06 A3059 =
2018-02-22 18:20 METAR KMTN 222320Z 04005G14KT 7SM OVC011 07/06 A3059 =
2018-02-22 17:45 METAR KMTN 222245Z 01009KT 4SM BR BKN007 OVC011 07/07 A3058 =
2018-02-22 16:45 METAR KMTN 222145Z 01005KT 3SM BR OVC006 08/08 A3056 =
2018-02-22 15:45 METAR KMTN 222045Z 02005KT 1SM BR OVC004 08/08 A3053 =
2018-02-22 14:45 METAR KMTN 221945Z 02004KT 1/2SM FG OVC003 09/09 A3051 =
2018-02-22 14:20 METAR KMTN 221920Z 06006KT 1/2SM FG OVC003 10/09 A3046 =
2018-02-22 14:00 METAR KMTN 221900Z 06005KT 2 1/2SM -RA OVC009 11/08 A3047 =
2018-02-22 13:45 METAR KMTN 221845Z 05004KT 10SM OVC017 11/07 A3046 =
2018-02-22 12:45 METAR KMTN 221745Z 05005KT 10SM OVC025 11/06 A3049 =
2018-02-22 11:45 METAR KMTN 221645Z 04004KT 10SM -RA OVC030 11/06 A3052 =
2018-02-22 10:50 METAR KMTN 221550Z 03003KT 10SM OVC032 11/07 A3053 =
2018-02-22 09:45 METAR KMTN 221445Z 03005KT 10SM OVC030 11/07 A3052 =
2018-02-22 07:45 METAR KMTN 221245Z 36005KT 10SM OVC024 12/03 A3050 =

Support USWX by starting your Amazon purchase here.